Time;durP1;ratioP1;P1;durP2;ratioP2;P2;SDS_P1;SDS_P2;PMS_P1;PMS_P2;Temp;Humidity;BMP_temperature;BMP_pressure;BME280_temperature;BME280_humidity;BME280_pressure;Samples;Min_cycle;Max_cycle;Signal;HPM_P1;HPM_P2
2023/04/05 00:01:37;;;;;;;6.10;4.25;;;;;9.90;102332.00;;;;5009929;28;20228;-77
2023/04/05 00:04:06;;;;;;;5.80;4.30;;;;;9.80;102334.00;;;;5008575;28;20283;-77
2023/04/05 00:06:36;;;;;;;5.53;4.18;;;;;9.80;102330.00;;;;5010979;28;20605;-78
2023/04/05 00:09:04;;;;;;;6.72;4.45;;;;;9.80;102332.00;;;;5009560;28;20212;-78
2023/04/05 00:11:32;;;;;;;5.55;4.55;;;;;9.80;102325.00;;;;5011206;28;20208;-77
2023/04/05 00:14:00;;;;;;;6.05;4.07;;;;;9.80;102324.00;;;;5009018;28;20205;-77
2023/04/05 00:16:28;;;;;;;6.70;4.25;;;;;9.80;102327.00;;;;5007294;28;20208;-77
2023/04/05 00:18:59;;;;;;;5.85;4.28;;;;;9.80;102327.00;;;;5003009;28;20209;-79
2023/04/05 00:21:26;;;;;;;5.32;3.60;;;;;9.80;102325.00;;;;5009338;28;20235;-77
2023/04/05 00:23:56;;;;;;;6.18;4.20;;;;;9.70;102323.00;;;;5008404;28;20204;-77
2023/04/05 00:26:23;;;;;;;5.82;4.00;;;;;9.70;102312.00;;;;5008862;28;20205;-78
2023/04/05 00:28:51;;;;;;;5.18;3.67;;;;;9.70;102319.00;;;;5002975;28;20193;-77
2023/04/05 00:31:19;;;;;;;4.43;3.50;;;;;9.70;102314.00;;;;5007515;28;20654;-77
2023/04/05 00:33:46;;;;;;;6.35;4.20;;;;;9.70;102314.00;;;;5004387;28;20671;-78
2023/04/05 00:36:16;;;;;;;4.95;3.80;;;;;9.60;102312.00;;;;4997538;28;20666;-77
2023/04/05 00:38:45;;;;;;;5.72;4.22;;;;;9.60;102313.00;;;;5007885;28;20474;-78
2023/04/05 00:41:13;;;;;;;6.80;4.15;;;;;9.60;102311.00;;;;5008498;28;20255;-78
2023/04/05 00:43:41;;;;;;;7.00;3.95;;;;;9.60;102307.00;;;;5007646;28;20205;-77
2023/04/05 00:46:09;;;;;;;8.10;3.83;;;;;9.60;102300.00;;;;5000473;28;20205;-77
2023/04/05 00:48:37;;;;;;;6.35;3.55;;;;;9.60;102303.00;;;;4990056;28;20596;-77
2023/04/05 00:51:08;;;;;;;6.93;4.43;;;;;9.60;102302.00;;;;5004942;28;20579;-77
2023/04/05 00:53:37;;;;;;;6.07;4.22;;;;;9.50;102310.00;;;;5003892;28;20284;-77
2023/04/05 00:56:05;;;;;;;4.82;3.30;;;;;9.50;102307.00;;;;5007610;28;20225;-78
2023/04/05 00:58:32;;;;;;;7.85;3.95;;;;;9.50;102300.00;;;;5008896;28;20208;-77
2023/04/05 01:01:12;;;;;;;4.60;3.60;;;;;9.50;102295.00;;;;5009052;28;20263;-78
2023/04/05 01:03:43;;;;;;;5.43;3.80;;;;;9.50;102301.00;;;;5006897;28;20236;-77
2023/04/05 01:06:22;;;;;;;5.60;4.20;;;;;9.40;102292.00;;;;5005331;28;20682;-77
2023/04/05 01:09:00;;;;;;;4.93;3.50;;;;;9.40;102290.00;;;;4993902;28;20201;-78
2023/04/05 01:11:31;;;;;;;5.07;3.80;;;;;9.40;102289.00;;;;5008593;28;20288;-77
2023/04/05 01:13:59;;;;;;;6.43;3.58;;;;;9.30;102284.00;;;;5007604;28;20197;-78
2023/04/05 01:16:27;;;;;;;4.88;3.92;;;;;9.30;102284.00;;;;5006187;28;20212;-78
2023/04/05 01:18:55;;;;;;;6.45;3.85;;;;;9.30;102290.00;;;;5006824;28;20208;-78
2023/04/05 01:21:52;;;;;;;5.10;3.45;;;;;9.20;102289.00;;;;4999781;28;20205;-78
2023/04/05 01:24:37;;;;;;;5.70;3.72;;;;;9.20;102285.00;;;;4990754;28;20209;-78
2023/04/05 01:27:09;;;;;;;4.28;3.25;;;;;9.20;102280.00;;;;5006087;28;20247;-78
2023/04/05 01:29:47;;;;;;;7.13;3.20;;;;;9.10;102287.00;;;;5007865;28;20203;-77
2023/04/05 01:32:23;;;;;;;5.65;3.97;;;;;9.10;102280.00;;;;5008204;28;20208;-78
2023/04/05 01:34:56;;;;;;;5.57;3.30;;;;;9.10;102279.00;;;;5006108;28;20204;-78
2023/04/05 01:37:26;;;;;;;4.93;3.45;;;;;9.10;102266.00;;;;5002750;28;20211;-78
2023/04/05 01:39:54;;;;;;;5.10;3.08;;;;;9.10;102274.00;;;;5000773;28;20217;-78
2023/04/05 01:42:25;;;;;;;6.60;3.65;;;;;9.00;102276.00;;;;4995748;28;20244;-78
2023/04/05 01:44:56;;;;;;;4.43;3.72;;;;;9.00;102273.00;;;;4998332;28;20205;-77
2023/04/05 01:47:23;;;;;;;5.82;4.13;;;;;9.00;102268.00;;;;5004302;28;20189;-78
2023/04/05 01:49:51;;;;;;;5.30;3.58;;;;;8.90;102273.00;;;;5001313;28;20204;-78
2023/04/05 01:52:18;;;;;;;6.75;4.43;;;;;8.90;102260.00;;;;5005302;28;20205;-78
2023/04/05 01:54:45;;;;;;;7.68;4.10;;;;;8.90;102276.00;;;;5003472;28;20213;-77
2023/04/05 01:57:13;;;;;;;4.90;3.78;;;;;8.90;102269.00;;;;5001038;28;20205;-78
2023/04/05 01:59:40;;;;;;;4.93;3.38;;;;;8.80;102268.00;;;;4998142;28;20235;-77
2023/04/05 02:02:08;;;;;;;5.95;3.50;;;;;8.80;102260.00;;;;5006343;28;20600;-77
2023/04/05 02:04:36;;;;;;;7.13;3.60;;;;;8.80;102259.00;;;;5001823;28;20694;-77
2023/04/05 02:07:03;;;;;;;6.63;4.03;;;;;8.70;102253.00;;;;5005531;28;20743;-77
2023/04/05 02:09:30;;;;;;;9.25;4.60;;;;;8.70;102257.00;;;;5003718;28;20196;-77
2023/04/05 02:11:58;;;;;;;4.30;3.67;;;;;8.70;102246.00;;;;4999695;28;20208;-77
2023/04/05 02:14:25;;;;;;;6.05;3.97;;;;;8.70;102246.00;;;;5005579;28;20227;-77
2023/04/05 02:16:55;;;;;;;6.72;3.33;;;;;8.60;102249.00;;;;4997103;28;20212;-77
2023/04/05 02:19:24;;;;;;;6.78;4.03;;;;;8.60;102244.00;;;;5005012;28;20207;-78
2023/04/05 02:21:53;;;;;;;5.07;3.80;;;;;8.60;102242.00;;;;5007324;28;20224;-78
2023/04/05 02:24:20;;;;;;;5.18;4.00;;;;;8.50;102242.00;;;;5007649;28;20193;-77
2023/04/05 02:26:48;;;;;;;4.45;3.40;;;;;8.50;102240.00;;;;5007253;28;20208;-77
2023/04/05 02:29:15;;;;;;;8.57;4.50;;;;;8.50;102235.00;;;;5005085;28;20197;-77
2023/04/05 02:31:43;;;;;;;5.82;3.88;;;;;8.50;102241.00;;;;5006279;28;20188;-77
2023/04/05 02:34:10;;;;;;;4.43;3.53;;;;;8.40;102234.00;;;;5003897;28;20208;-77
2023/04/05 02:36:40;;;;;;;5.65;3.92;;;;;8.40;102237.00;;;;5008113;28;20271;-77
2023/04/05 02:39:08;;;;;;;6.00;4.07;;;;;8.40;102227.00;;;;5009233;28;20201;-76
2023/04/05 02:41:35;;;;;;;5.28;3.42;;;;;8.40;102231.00;;;;5010221;28;20205;-77
2023/04/05 02:44:02;;;;;;;5.00;4.05;;;;;8.30;102231.00;;;;5007014;28;20206;-77
2023/04/05 02:46:30;;;;;;;4.75;3.25;;;;;8.30;102225.00;;;;5006596;28;20204;-78
2023/04/05 02:48:57;;;;;;;4.93;3.72;;;;;8.30;102234.00;;;;5006555;28;20256;-77
2023/04/05 02:51:25;;;;;;;5.45;3.90;;;;;8.30;102224.00;;;;5005144;28;20646;-77
2023/04/05 02:53:54;;;;;;;4.57;3.50;;;;;8.20;102226.00;;;;5005660;28;20684;-77
2023/04/05 02:56:21;;;;;;;5.30;3.50;;;;;8.20;102216.00;;;;5005877;28;20674;-77
2023/04/05 02:58:49;;;;;;;5.30;3.35;;;;;8.20;102217.00;;;;5006367;28;20192;-77
2023/04/05 03:01:16;;;;;;;8.27;4.10;;;;;8.20;102216.00;;;;5009096;28;20224;-78
2023/04/05 03:03:43;;;;;;;4.88;3.47;;;;;8.10;102206.00;;;;5005400;28;20217;-78
2023/04/05 03:06:12;;;;;;;5.28;3.45;;;;;8.10;102201.00;;;;5015276;28;20216;-77
2023/04/05 03:08:42;;;;;;;4.07;3.35;;;;;8.10;102203.00;;;;4997719;28;20225;-77
2023/04/05 03:11:12;;;;;;;6.28;3.40;;;;;8.10;102200.00;;;;5023639;28;20681;-78
2023/04/05 03:13:39;;;;;;;6.57;3.88;;;;;8.00;102198.00;;;;5010266;28;20197;-77
2023/04/05 03:16:07;;;;;;;5.63;3.40;;;;;8.00;102202.00;;;;5011597;28;20201;-77
2023/04/05 03:18:34;;;;;;;7.18;4.00;;;;;8.00;102205.00;;;;5011682;28;20571;-78
2023/04/05 03:21:03;;;;;;;5.82;4.65;;;;;8.00;102196.00;;;;4999018;28;20658;-77
2023/04/05 03:23:32;;;;;;;6.30;3.85;;;;;7.90;102199.00;;;;5009821;28;20781;-78
2023/04/05 03:26:00;;;;;;;6.70;3.65;;;;;7.90;102197.00;;;;5009016;28;20257;-78
2023/04/05 03:28:31;;;;;;;7.20;4.05;;;;;7.90;102196.00;;;;5012514;28;20616;-77
2023/04/05 03:30:58;;;;;;;5.30;3.40;;;;;7.80;102191.00;;;;5009710;28;20205;-77
2023/04/05 03:33:26;;;;;;;5.38;3.55;;;;;7.80;102188.00;;;;5011848;28;20201;-77
2023/04/05 03:35:53;;;;;;;5.53;4.25;;;;;7.80;102197.00;;;;5010214;28;20216;-77
2023/04/05 03:38:20;;;;;;;6.57;3.90;;;;;7.80;102194.00;;;;5011960;28;20201;-77
2023/04/05 03:40:47;;;;;;;5.60;3.65;;;;;7.70;102198.00;;;;5007565;28;20681;-78
2023/04/05 03:43:15;;;;;;;5.32;3.35;;;;;7.70;102193.00;;;;5002504;28;20225;-78
2023/04/05 03:45:44;;;;;;;5.13;3.75;;;;;7.70;102193.00;;;;5008748;28;20288;-78
2023/04/05 03:48:11;;;;;;;5.50;3.58;;;;;7.70;102184.00;;;;5009705;28;20296;-77
2023/04/05 03:50:39;;;;;;;4.70;3.38;;;;;7.60;102185.00;;;;5009549;28;20458;-77
2023/04/05 03:53:06;;;;;;;5.82;3.80;;;;;7.60;102185.00;;;;5009572;28;20342;-77
2023/04/05 03:55:33;;;;;;;5.13;3.65;;;;;7.60;102188.00;;;;5010244;28;20203;-77
2023/04/05 03:58:00;;;;;;;6.85;4.00;;;;;7.60;102189.00;;;;5005267;28;20588;-77
2023/04/05 04:00:28;;;;;;;5.03;3.70;;;;;7.60;102196.00;;;;5008217;28;20235;-77
2023/04/05 04:02:57;;;;;;;5.80;3.85;;;;;7.50;102194.00;;;;5009286;28;20243;-77
2023/04/05 04:05:24;;;;;;;5.90;3.80;;;;;7.50;102190.00;;;;5008149;28;20201;-77
2023/04/05 04:07:52;;;;;;;6.22;3.63;;;;;7.50;102190.00;;;;5009777;28;20217;-77
2023/04/05 04:10:19;;;;;;;5.90;3.72;;;;;7.50;102180.00;;;;5006526;28;20197;-77
2023/04/05 04:12:46;;;;;;;4.72;3.65;;;;;7.50;102180.00;;;;5010139;28;20204;-77
2023/04/05 04:15:14;;;;;;;6.18;4.05;;;;;7.40;102177.00;;;;5011047;28;20189;-77
2023/04/05 04:17:41;;;;;;;5.20;4.05;;;;;7.40;102188.00;;;;5009059;28;20579;-77
2023/04/05 04:20:11;;;;;;;5.30;3.45;;;;;7.40;102183.00;;;;5010532;28;20197;-77
2023/04/05 04:22:39;;;;;;;6.03;3.75;;;;;7.40;102180.00;;;;5009475;28;20220;-77
2023/04/05 04:25:09;;;;;;;6.30;3.97;;;;;7.40;102181.00;;;;5010244;28;20197;-78
2023/04/05 04:27:38;;;;;;;5.15;3.60;;;;;7.40;102179.00;;;;5009435;28;20201;-78
2023/04/05 04:30:09;;;;;;;5.03;3.60;;;;;7.30;102181.00;;;;5010056;28;20259;-77
2023/04/05 04:32:53;;;;;;;6.30;3.65;;;;;7.30;102177.00;;;;5006575;28;20204;-77
2023/04/05 04:35:24;;;;;;;5.63;3.88;;;;;7.30;102183.00;;;;5010221;28;20205;-77
2023/04/05 04:37:56;;;;;;;6.40;4.05;;;;;7.30;102174.00;;;;5009820;28;20263;-77
2023/04/05 04:40:24;;;;;;;4.80;3.53;;;;;7.30;102181.00;;;;5008038;28;20197;-77
2023/04/05 04:42:52;;;;;;;6.20;4.05;;;;;7.30;102181.00;;;;5003822;28;20232;-77
2023/04/05 04:45:20;;;;;;;5.47;3.92;;;;;7.20;102179.00;;;;5007157;28;20205;-77
2023/04/05 04:47:51;;;;;;;5.78;4.00;;;;;7.20;102179.00;;;;5007639;28;20201;-77
2023/04/05 04:50:21;;;;;;;5.28;3.50;;;;;7.20;102179.00;;;;5002394;28;20189;-77
2023/04/05 04:52:48;;;;;;;6.35;4.15;;;;;7.20;102178.00;;;;5006403;28;20194;-77
2023/04/05 04:55:16;;;;;;;6.97;3.72;;;;;7.20;102183.00;;;;5005857;28;20626;-77
2023/04/05 04:57:44;;;;;;;5.53;3.97;;;;;7.20;102182.00;;;;5006725;28;20196;-77
2023/04/05 05:00:14;;;;;;;8.02;4.25;;;;;7.20;102179.00;;;;5004791;28;20229;-77
2023/04/05 05:02:42;;;;;;;6.95;3.72;;;;;7.10;102178.00;;;;5007006;28;20227;-77
2023/04/05 05:05:10;;;;;;;5.30;3.63;;;;;7.10;102173.00;;;;5005425;28;20209;-76
2023/04/05 05:07:40;;;;;;;6.47;4.55;;;;;7.10;102174.00;;;;5005157;28;20736;-77
2023/04/05 05:10:09;;;;;;;7.45;4.22;;;;;7.10;102175.00;;;;5009921;28;20193;-77
2023/04/05 05:12:37;;;;;;;5.97;4.38;;;;;7.10;102174.00;;;;5009757;28;20423;-77
2023/04/05 05:15:05;;;;;;;4.90;3.45;;;;;7.10;102170.00;;;;5007702;28;20197;-77
2023/04/05 05:17:33;;;;;;;5.15;3.63;;;;;7.10;102173.00;;;;5006647;28;20197;-77
2023/04/05 05:20:01;;;;;;;6.32;4.40;;;;;7.10;102169.00;;;;5006320;28;20203;-77
2023/04/05 05:22:28;;;;;;;5.50;3.75;;;;;7.10;102169.00;;;;5008340;28;20635;-77
2023/04/05 05:24:56;;;;;;;5.93;4.00;;;;;7.10;102172.00;;;;5008147;28;20694;-78
2023/04/05 05:27:24;;;;;;;6.72;3.83;;;;;7.10;102163.00;;;;5008520;28;20686;-77
2023/04/05 05:29:52;;;;;;;5.03;3.78;;;;;7.10;102170.00;;;;5005811;28;20189;-78
2023/04/05 05:32:19;;;;;;;5.68;4.22;;;;;7.10;102163.00;;;;5005486;28;20197;-78
2023/04/05 05:34:47;;;;;;;6.43;4.05;;;;;7.10;102155.00;;;;5005518;28;20201;-78
2023/04/05 05:37:15;;;;;;;7.55;4.38;;;;;7.10;102171.00;;;;5008900;28;20237;-78
2023/04/05 05:39:43;;;;;;;6.10;4.43;;;;;7.10;102167.00;;;;5005120;28;20201;-78
2023/04/05 05:42:12;;;;;;;7.63;4.97;;;;;7.10;102162.00;;;;5011127;28;20506;-78
2023/04/05 05:44:39;;;;;;;7.75;4.88;;;;;7.20;102164.00;;;;5002038;28;20703;-79
2023/04/05 05:47:06;;;;;;;6.05;4.15;;;;;7.20;102169.00;;;;5005399;28;20196;-79
2023/04/05 05:49:34;;;;;;;7.90;4.55;;;;;7.20;102177.00;;;;5006908;28;20215;-77
2023/04/05 05:52:01;;;;;;;6.05;4.25;;;;;7.30;102177.00;;;;5000824;28;20866;-78
2023/04/05 05:54:28;;;;;;;9.30;5.07;;;;;7.30;102173.00;;;;5001150;28;20214;-78
2023/04/05 05:56:56;;;;;;;7.00;4.25;;;;;7.30;102175.00;;;;5005291;28;20216;-79
2023/04/05 05:59:24;;;;;;;7.15;4.82;;;;;7.40;102170.00;;;;5004240;28;20654;-80
2023/04/05 06:01:51;;;;;;;6.28;3.97;;;;;7.40;102172.00;;;;5002971;28;20216;-78
2023/04/05 06:04:19;;;;;;;6.30;4.13;;;;;7.50;102167.00;;;;5006764;28;20231;-78
2023/04/05 06:06:46;;;;;;;6.30;4.45;;;;;7.50;102176.00;;;;5002915;28;20305;-79
2023/04/05 06:09:14;;;;;;;6.22;4.80;;;;;7.60;102175.00;;;;5002983;28;20639;-79
2023/04/05 06:11:41;;;;;;;6.70;4.68;;;;;7.60;102185.00;;;;5002881;28;20213;-79
2023/04/05 06:14:09;;;;;;;6.20;4.68;;;;;7.70;102175.00;;;;5000400;28;20201;-79
2023/04/05 06:16:37;;;;;;;7.70;3.85;;;;;7.70;102185.00;;;;5003863;28;20197;-79
2023/04/05 06:19:05;;;;;;;8.35;4.97;;;;;7.80;102175.00;;;;5005960;28;20214;-79
2023/04/05 06:21:32;;;;;;;7.72;5.03;;;;;7.80;102172.00;;;;5004724;28;20201;-79
2023/04/05 06:23:59;;;;;;;6.07;4.72;;;;;7.90;102191.00;;;;5006775;28;20324;-79
2023/04/05 06:26:28;;;;;;;6.13;4.20;;;;;8.00;102182.00;;;;5005338;28;20650;-79
2023/04/05 06:28:56;;;;;;;6.32;4.40;;;;;8.10;102187.00;;;;5006984;28;20220;-79
2023/04/05 06:31:28;;;;;;;8.77;5.13;;;;;8.10;102180.00;;;;5005142;28;20205;-79
2023/04/05 06:33:56;;;;;;;5.82;4.53;;;;;8.20;102186.00;;;;5006675;28;20192;-79
2023/04/05 06:36:23;;;;;;;7.28;4.57;;;;;8.30;102184.00;;;;5003795;28;20205;-79
2023/04/05 06:38:52;;;;;;;8.05;5.47;;;;;8.40;102176.00;;;;5003144;28;20201;-78
2023/04/05 06:41:19;;;;;;;7.35;4.55;;;;;8.50;102184.00;;;;5005452;28;20193;-79
2023/04/05 06:43:46;;;;;;;7.63;4.93;;;;;8.60;102181.00;;;;5003856;28;20737;-79
2023/04/05 06:46:13;;;;;;;7.40;4.93;;;;;8.70;102177.00;;;;5006558;28;20569;-78
2023/04/05 06:48:43;;;;;;;6.78;4.80;;;;;8.80;102178.00;;;;4997181;28;20208;-79
2023/04/05 06:51:11;;;;;;;7.28;4.38;;;;;8.80;102176.00;;;;5005419;28;20193;-79
2023/04/05 06:53:38;;;;;;;6.35;4.47;;;;;9.00;102180.00;;;;5004782;28;20200;-79
2023/04/05 06:56:06;;;;;;;9.20;4.75;;;;;9.10;102181.00;;;;5004937;28;20201;-79
2023/04/05 06:58:34;;;;;;;8.10;5.20;;;;;9.20;102184.00;;;;5000271;28;20224;-80
2023/04/05 07:01:02;;;;;;;8.52;4.72;;;;;9.30;102182.00;;;;5002790;28;20798;-79
2023/04/05 07:03:29;;;;;;;6.22;4.25;;;;;9.40;102181.00;;;;5007589;28;20319;-79
2023/04/05 07:05:59;;;;;;;5.40;4.13;;;;;9.50;102180.00;;;;4997399;28;20261;-79
2023/04/05 07:08:29;;;;;;;7.55;4.07;;;;;9.60;102176.00;;;;5007379;28;20193;-79
2023/04/05 07:10:56;;;;;;;6.45;4.22;;;;;9.70;102181.00;;;;5005371;28;20220;-79
2023/04/05 07:13:24;;;;;;;5.00;4.00;;;;;9.80;102170.00;;;;5007774;28;20197;-80
2023/04/05 07:15:52;;;;;;;6.40;4.50;;;;;9.90;102180.00;;;;5007055;28;20634;-79
2023/04/05 07:18:19;;;;;;;8.43;4.20;;;;;10.00;102185.00;;;;5009330;28;20666;-79
2023/04/05 07:20:48;;;;;;;10.82;4.85;;;;;10.20;102181.00;;;;5016205;28;20197;-80
2023/04/05 07:23:16;;;;;;;5.35;4.15;;;;;10.30;102176.00;;;;5002980;28;20205;-79
2023/04/05 07:25:45;;;;;;;4.93;3.97;;;;;10.40;102172.00;;;;5007836;28;20674;-79
2023/04/05 07:28:12;;;;;;;5.10;3.50;;;;;10.50;102179.00;;;;5007336;28;20247;-79
2023/04/05 07:30:40;;;;;;;5.28;3.75;;;;;10.60;102174.00;;;;5008341;28;20208;-79
2023/04/05 07:33:07;;;;;;;5.18;4.00;;;;;10.70;102174.00;;;;5008359;28;20200;-80
2023/04/05 07:35:35;;;;;;;5.60;3.70;;;;;10.90;102173.00;;;;5008375;28;20209;-79
2023/04/05 07:38:02;;;;;;;6.28;4.00;;;;;11.00;102169.00;;;;5005956;28;20201;-79
2023/04/05 07:40:30;;;;;;;6.05;4.18;;;;;11.10;102173.00;;;;4992803;28;20209;-79
2023/04/05 07:42:58;;;;;;;4.30;3.25;;;;;11.20;102177.00;;;;5001471;28;20627;-79
2023/04/05 07:45:26;;;;;;;5.38;3.80;;;;;11.30;102178.00;;;;5007711;28;20225;-79
2023/04/05 07:47:53;;;;;;;5.43;3.80;;;;;11.40;102177.00;;;;5009469;28;20193;-80
2023/04/05 07:50:20;;;;;;;4.35;3.75;;;;;11.50;102175.00;;;;5022775;28;20236;-80
2023/04/05 07:52:48;;;;;;;5.93;4.13;;;;;11.60;102180.00;;;;5009330;28;20201;-79
2023/04/05 07:55:16;;;;;;;6.38;3.80;;;;;11.70;102176.00;;;;5007602;28;20214;-80
2023/04/05 07:57:43;;;;;;;6.13;4.00;;;;;11.80;102169.00;;;;5007515;28;20591;-79
2023/04/05 08:00:14;;;;;;;6.05;3.50;;;;;11.90;102163.00;;;;5007968;28;20244;-81
2023/04/05 08:02:41;;;;;;;4.75;4.07;;;;;12.10;102167.00;;;;5005965;28;20223;-78
2023/04/05 08:05:09;;;;;;;7.45;4.07;;;;;12.20;102171.00;;;;5010199;28;20229;-79
2023/04/05 08:07:36;;;;;;;5.95;3.88;;;;;12.30;102169.00;;;;5008455;28;20216;-79
2023/04/05 08:10:05;;;;;;;5.10;3.65;;;;;12.40;102171.00;;;;5010097;28;20204;-78
2023/04/05 08:12:33;;;;;;;6.97;3.25;;;;;12.50;102171.00;;;;5008874;28;20201;-79
2023/04/05 08:15:01;;;;;;;5.75;3.50;;;;;12.70;102173.00;;;;5004962;28;20193;-79
2023/04/05 08:17:29;;;;;;;4.78;3.13;;;;;12.80;102168.00;;;;5008822;28;20204;-80
2023/04/05 08:19:57;;;;;;;4.00;3.22;;;;;12.90;102168.00;;;;5010369;28;20204;-80
2023/04/05 08:22:27;;;;;;;5.15;3.75;;;;;13.00;102166.00;;;;5010882;28;20196;-79
2023/04/05 08:24:54;;;;;;;3.83;3.35;;;;;13.20;102172.00;;;;5008402;28;20232;-79
2023/04/05 08:27:22;;;;;;;5.20;3.60;;;;;13.30;102169.00;;;;5009632;28;20197;-79
2023/04/05 08:29:49;;;;;;;4.85;3.45;;;;;13.40;102172.00;;;;5007285;28;20205;-79
2023/04/05 08:32:17;;;;;;;5.18;3.72;;;;;13.50;102176.00;;;;4991790;28;20205;-79
2023/04/05 08:34:45;;;;;;;4.93;3.83;;;;;13.60;102173.00;;;;5006411;28;20208;-80
2023/04/05 08:37:12;;;;;;;5.88;3.53;;;;;13.70;102168.00;;;;5006938;28;20204;-79
2023/04/05 08:39:40;;;;;;;5.95;4.10;;;;;13.80;102167.00;;;;5009690;28;20208;-79
2023/04/05 08:42:17;;;;;;;5.40;3.67;;;;;13.90;102163.00;;;;5018457;28;20212;-79
2023/04/05 08:44:45;;;;;;;5.45;3.67;;;;;14.10;102159.00;;;;5010226;28;20228;-79
2023/04/05 08:47:17;;;;;;;5.10;3.50;;;;;14.10;102160.00;;;;5004790;28;20201;-80
2023/04/05 08:49:46;;;;;;;6.47;4.10;;;;;14.30;102158.00;;;;4990361;28;20244;-81
2023/04/05 08:52:13;;;;;;;5.32;3.80;;;;;14.40;102159.00;;;;4994885;28;20671;-80
2023/04/05 08:54:41;;;;;;;4.88;3.42;;;;;14.40;102154.00;;;;5007665;28;20197;-80
2023/04/05 08:57:09;;;;;;;5.93;3.55;;;;;14.50;102163.00;;;;5008594;28;20212;-81
2023/04/05 08:59:39;;;;;;;5.05;3.42;;;;;14.60;102160.00;;;;5006456;28;20743;-79
2023/04/05 09:02:13;;;;;;;5.20;3.42;;;;;14.70;102155.00;;;;5007061;28;20233;-79
2023/04/05 09:04:43;;;;;;;5.85;3.50;;;;;14.70;102157.00;;;;4999793;28;20245;-80
2023/04/05 09:07:14;;;;;;;4.50;2.92;;;;;14.80;102156.00;;;;4997567;28;20217;-79
2023/04/05 09:09:47;;;;;;;5.75;3.53;;;;;14.90;102162.00;;;;5008450;28;20201;-80
2023/04/05 09:12:14;;;;;;;5.65;3.60;;;;;15.10;102170.00;;;;5009229;28;20251;-81
2023/04/05 09:14:42;;;;;;;10.50;3.75;;;;;15.10;102158.00;;;;5008275;28;20193;-81
2023/04/05 09:17:10;;;;;;;3.70;3.20;;;;;15.20;102161.00;;;;5008189;28;20212;-80
2023/04/05 09:19:37;;;;;;;4.80;3.45;;;;;15.30;102159.00;;;;5008602;28;20212;-80
2023/04/05 09:22:06;;;;;;;4.72;3.45;;;;;15.40;102167.00;;;;4997530;28;20641;-80
2023/04/05 09:24:38;;;;;;;5.55;3.60;;;;;15.40;102166.00;;;;5008151;28;20220;-80
2023/04/05 09:27:08;;;;;;;4.55;3.45;;;;;15.50;102162.00;;;;5009687;28;20479;-81
2023/04/05 09:29:35;;;;;;;4.68;3.15;;;;;15.60;102152.00;;;;5008437;28;20747;-80
2023/04/05 09:32:03;;;;;;;3.97;3.13;;;;;15.70;102157.00;;;;5004951;28;20213;-79
2023/04/05 09:34:32;;;;;;;5.55;3.95;;;;;15.80;102149.00;;;;5006666;28;20594;-79
2023/04/05 09:36:59;;;;;;;6.93;3.65;;;;;15.80;102152.00;;;;5004319;28;20255;-80
2023/04/05 09:39:31;;;;;;;5.30;3.90;;;;;15.90;102151.00;;;;4997713;28;20193;-79
2023/04/05 09:42:08;;;;;;;5.28;3.60;;;;;15.90;102147.00;;;;5006168;28;20208;-79
2023/04/05 09:44:55;;;;;;;4.45;3.63;;;;;16.00;102144.00;;;;5006295;28;20315;-80
2023/04/05 09:47:26;;;;;;;4.63;3.30;;;;;16.10;102139.00;;;;4997247;28;20213;-80
2023/04/05 09:49:53;;;;;;;5.93;3.75;;;;;16.20;102147.00;;;;5004605;28;20232;-80
2023/04/05 09:52:22;;;;;;;4.25;3.28;;;;;16.30;102141.00;;;;5004994;28;20561;-80
2023/04/05 09:54:51;;;;;;;5.88;3.92;;;;;16.40;102152.00;;;;5005936;28;20260;-81
2023/04/05 09:57:20;;;;;;;6.53;4.18;;;;;16.50;102154.00;;;;5007067;28;20193;-80
2023/04/05 09:59:47;;;;;;;4.40;3.40;;;;;16.50;102160.00;;;;5011463;28;20239;-80
2023/04/05 10:02:15;;;;;;;5.22;3.53;;;;;16.60;102152.00;;;;5006307;28;20203;-80
2023/04/05 10:04:45;;;;;;;5.57;3.92;;;;;16.70;102153.00;;;;5007402;28;20213;-81
2023/04/05 10:07:14;;;;;;;3.63;3.13;;;;;16.80;102144.00;;;;5007903;28;20225;-80
2023/04/05 10:09:42;;;;;;;4.93;3.60;;;;;16.80;102140.00;;;;5008808;28;20255;-80
2023/04/05 10:12:12;;;;;;;4.97;3.80;;;;;16.90;102137.00;;;;4993407;28;20603;-81
2023/04/05 10:14:41;;;;;;;5.10;3.20;;;;;17.00;102132.00;;;;5005636;28;20201;-81
2023/04/05 10:17:12;;;;;;;6.10;4.47;;;;;17.00;102134.00;;;;5006495;28;20824;-81
2023/04/05 10:19:54;;;;;;;6.85;4.63;;;;;17.10;102119.00;;;;5009630;28;20193;-80
2023/04/05 10:22:28;;;;;;;5.57;3.83;;;;;17.20;102118.00;;;;5005163;28;20204;-81
2023/04/05 10:25:04;;;;;;;5.88;3.80;;;;;17.20;102122.00;;;;5007745;28;20322;-80
2023/04/05 10:27:38;;;;;;;5.03;3.80;;;;;17.30;102127.00;;;;5007327;28;20207;-81
2023/04/05 10:30:09;;;;;;;6.20;3.22;;;;;17.30;102116.00;;;;4994489;28;20584;-81
2023/04/05 10:32:49;;;;;;;5.70;3.67;;;;;17.40;102117.00;;;;5004363;28;20263;-81
2023/04/05 10:35:20;;;;;;;4.80;3.70;;;;;17.50;102116.00;;;;5007046;28;20192;-81
2023/04/05 10:38:01;;;;;;;4.70;3.78;;;;;17.50;102114.00;;;;5007168;28;20204;-81
2023/04/05 10:40:33;;;;;;;3.75;3.35;;;;;17.60;102116.00;;;;5007223;28;20201;-80
2023/04/05 10:43:00;;;;;;;4.00;3.55;;;;;17.70;102117.00;;;;5005239;28;20229;-80
2023/04/05 10:45:31;;;;;;;6.03;3.92;;;;;17.80;102112.00;;;;5007062;28;20225;-81
2023/04/05 10:48:05;;;;;;;4.18;3.70;;;;;17.80;102110.00;;;;5004448;28;20208;-81
2023/04/05 10:50:33;;;;;;;4.45;3.20;;;;;17.80;102108.00;;;;5004435;28;20698;-81
2023/04/05 10:53:01;;;;;;;7.25;3.95;;;;;17.90;102107.00;;;;4994891;28;20223;-81
2023/04/05 10:55:30;;;;;;;4.97;3.95;;;;;17.90;102104.00;;;;5007827;28;20216;-80
2023/04/05 10:57:58;;;;;;;5.03;3.50;;;;;17.90;102103.00;;;;5006293;28;20511;-81
2023/04/05 11:00:25;;;;;;;4.47;3.53;;;;;18.00;102100.00;;;;5006113;28;20235;-81
2023/04/05 11:02:56;;;;;;;6.07;3.65;;;;;18.10;102099.00;;;;5003022;28;20584;-80
2023/04/05 11:05:31;;;;;;;5.10;3.67;;;;;18.10;102092.00;;;;5008288;28;20260;-80
2023/04/05 11:08:03;;;;;;;5.30;3.13;;;;;18.20;102093.00;;;;5005598;28;20247;-80
2023/04/05 11:10:31;;;;;;;6.93;3.95;;;;;18.30;102095.00;;;;4999126;28;20205;-80
2023/04/05 11:13:10;;;;;;;6.10;3.95;;;;;18.40;102091.00;;;;5007764;28;20205;-81
2023/04/05 11:15:38;;;;;;;4.63;3.30;;;;;18.50;102095.00;;;;5000285;28;20267;-81
2023/04/05 11:18:09;;;;;;;4.60;3.80;;;;;18.60;102089.00;;;;5003641;28;20201;-80
2023/04/05 11:20:45;;;;;;;5.22;3.85;;;;;18.60;102090.00;;;;5000572;28;20311;-80
2023/04/05 11:23:13;;;;;;;5.78;4.50;;;;;18.70;102087.00;;;;5011776;28;20193;-82
2023/04/05 11:25:46;;;;;;;6.15;3.58;;;;;18.80;102089.00;;;;5008792;28;20283;-80
2023/04/05 11:28:24;;;;;;;4.97;3.97;;;;;18.70;102080.00;;;;5004625;28;20197;-81
2023/04/05 11:30:55;;;;;;;4.93;3.60;;;;;18.80;102077.00;;;;5002004;28;20621;-81
2023/04/05 11:33:54;;;;;;;6.03;4.40;;;;;18.80;102077.00;;;;5010060;28;20209;-80
2023/04/05 11:36:36;;;;;;;5.53;3.83;;;;;18.80;102080.00;;;;4996096;28;20189;-80
2023/04/05 11:39:23;;;;;;;4.63;3.67;;;;;18.80;102076.00;;;;5007616;28;20578;-80
2023/04/05 11:41:56;;;;;;;5.03;3.85;;;;;18.90;102078.00;;;;5008785;28;20197;-80
2023/04/05 11:44:23;;;;;;;6.93;4.07;;;;;18.90;102077.00;;;;5009907;28;20205;-80
2023/04/05 11:46:51;;;;;;;6.05;4.30;;;;;19.00;102063.00;;;;5009322;28;20275;-79
2023/04/05 11:49:21;;;;;;;5.90;3.80;;;;;19.00;102063.00;;;;5008493;28;20200;-80
2023/04/05 11:51:50;;;;;;;8.70;5.05;;;;;19.00;102062.00;;;;5009185;28;20224;-80
2023/04/05 11:54:29;;;;;;;8.60;4.55;;;;;19.00;102056.00;;;;5007912;28;20201;-80
2023/04/05 11:56:57;;;;;;;6.90;4.35;;;;;19.10;102051.00;;;;5008043;28;20283;-80
2023/04/05 11:59:30;;;;;;;5.63;4.45;;;;;19.10;102053.00;;;;5007863;28;20655;-80
2023/04/05 12:02:02;;;;;;;5.35;4.18;;;;;19.10;102056.00;;;;5005122;28;20895;-80
2023/04/05 12:04:31;;;;;;;4.50;3.63;;;;;19.10;102052.00;;;;5007501;28;20647;-79
2023/04/05 12:07:18;;;;;;;4.85;4.00;;;;;19.00;102044.00;;;;5005976;28;20233;-79
2023/04/05 12:10:00;;;;;;;5.90;4.28;;;;;19.10;102045.00;;;;5005525;28;20382;-79
2023/04/05 12:12:27;;;;;;;4.70;3.95;;;;;19.20;102042.00;;;;5004963;28;20633;-80
2023/04/05 12:15:00;;;;;;;5.43;4.20;;;;;19.10;102040.00;;;;5004602;28;20197;-80
2023/04/05 12:17:40;;;;;;;8.45;4.70;;;;;19.10;102040.00;;;;5009040;28;20208;-79
2023/04/05 12:20:10;;;;;;;7.70;4.07;;;;;19.20;102039.00;;;;5005561;28;20196;-80
2023/04/05 12:22:38;;;;;;;6.05;3.78;;;;;19.30;102031.00;;;;5007971;28;20208;-80
2023/04/05 12:25:07;;;;;;;5.25;4.10;;;;;19.30;102036.00;;;;5006500;28;20227;-81